27 mai 2022

Temps Code Temps Temp. Vue Base cloud Vent METAR/SPECI
5:20 am
V
52 °F 6¼ mi+ 6.500 ft 280° 280° 7 kt METAR EDWE 270320Z AUTO 28007KT 9999 // FEW034/// BKN065/// 11/06 Q1016
4:50 am
V
52 °F 6¼ mi+ 6.600 ft 280° 280° 8 kt METAR EDWE 270250Z AUTO 28008KT 9999 // BKN066/// 11/07 Q1016
4:20 am
V
54 °F 6¼ mi+ 6.800 ft 290° 290° 8 kt METAR EDWE 270220Z AUTO 29008KT 9999 // BKN068/// 12/08 Q1016
3:50 am
V
54 °F 6¼ mi+ 6.800 ft 290° 290° 10 kt METAR EDWE 270150Z AUTO 29010KT 9999 // FEW051/// BKN068/// 12/07 Q1016
3:20 am
V
55 °F 6¼ mi+ - 290° 290° 9 kt METAR EDWE 270120Z AUTO 29009KT 9999 // SCT053/// SCT069/// 13/08 Q1016
2:50 am
V
55 °F 6¼ mi+ - 300° 300° 10 kt METAR EDWE 270050Z AUTO 30010KT 9999 // FEW058/// SCT110/// 13/09 Q1015
2:20 am
V
57 °F 6¼ mi+ 5.300 ft 290° 290° 11 kt METAR EDWE 270020Z AUTO 29011KT 9999 // BKN053/// BKN100/// 14/10 Q1015
1:50 am
V
57 °F 6¼ mi+ 4.800 ft 290° 290° 12 kt METAR EDWE 262350Z AUTO 29012KT 9999 // SCT015/// BKN048/// BKN100/// 14/11 Q1015
1:20 am
M
57 °F 6¼ mi+ 1.500 ft 260° 260° 11 kt METAR EDWE 262320Z AUTO 26011KT 9999 // FEW012/// BKN015/// BKN130/// 14/13 Q1015
12:50 am
M
57 °F 6¼ mi+ 1.200 ft 260° 260° 11 kt METAR EDWE 262250Z AUTO 26011KT 9999 // BKN012/// BKN057/// BKN110/// 14/13 Q1015
12:20 am
M
57 °F 6¼ mi+ 1.500 ft 250° 250° 12 kt METAR EDWE 262220Z AUTO 25012KT 9999 // SCT012/// BKN015/// BKN019/// 14/13 Q1015

26 mai 2022

Temps Code Temps Temp. Vue Base cloud Vent METAR/SPECI
11:50 pm
M
57 °F 6¼ mi+ 1.600 ft 250° 250° 13 kt METAR EDWE 262150Z AUTO 25013KT 9999 // SCT013/// BKN016/// BKN021/// 14/13 Q1016
11:20 pm
M
57 °F 6¼ mi+ 1.500 ft 260° 260° 14 kt METAR EDWE 262120Z AUTO 26014KT 9999 // BKN015/// 14/13 Q1016
10:50 pm
M
57 °F 5 mi 1.200 ft 250° 250° 16 kt METAR EDWE 262050Z AUTO 25016KT 8000 // BKN012/// OVC019/// 14/13 Q1016
10:20 pm
M
57 °F 6¼ mi+ 1.100 ft 240° 240° 12 kt METAR EDWE 262020Z AUTO 24012KT 9999 // BKN011/// OVC020/// 14/13 Q1015
9:50 pm
M
57 °F 6¼ mi+ 1.000 ft 230° 230° 11 kt METAR EDWE 261950Z AUTO 23011KT 9999 // OVC010/// 14/13 Q1015
9:20 pm
I
55 °F 6¼ mi+ 700 ft 230° 230° 9 kt METAR EDWE 261920Z AUTO 23009KT 190V250 9999 // FEW005/// BKN007/// OVC011/// 13/13 Q1015
8:50 pm
I
55 °F 1½ mi 1.300 ft 230° 230° 10 kt METAR EDWE 261850Z AUTO 23010KT 2500 // FEW009/// OVC013/// 13/12 Q1016
7:50 am
V
57 °F 6¼ mi+ 5.800 ft 260° 260° 11 kt METAR EDWE 260550Z AUTO 26011KT 9999 // BKN058/// 14/10 Q1016
7:20 am
V
57 °F 6¼ mi+ - 260° 260° 11 kt METAR EDWE 260520Z AUTO 26011KT 9999 // FEW060/// 14/10 Q1015
6:50 am
V
57 °F 6¼ mi+ 5.900 ft 250° 250° 10 kt METAR EDWE 260450Z AUTO 25010KT 9999 // BKN059/// 14/11 Q1015
6:20 am
V
55 °F 6¼ mi+ 5.600 ft 250° 250° 10 kt METAR EDWE 260420Z AUTO 25010KT 9999 // BKN056/// 13/11 Q1015
5:50 am
V
55 °F 6¼ mi+ 8.000 ft 250° 250° 9 kt METAR EDWE 260350Z AUTO 25009KT 9999 // SCT047/// BKN080/// 13/11 Q1014
5:20 am
V
55 °F 6¼ mi+ 8.000 ft 250° 250° 10 kt METAR EDWE 260320Z AUTO 25010KT 9999 // FEW046/// BKN080/// 13/11 Q1014
4:50 am
V
55 °F 6¼ mi+ 8.000 ft 260° 260° 11 kt METAR EDWE 260250Z AUTO 26011KT 9999 // FEW060/// OVC080/// 13/11 Q1014
4:20 am
V
57 °F 6¼ mi+ 8.100 ft 250° 250° 12 kt METAR EDWE 260220Z AUTO 25012KT 9999 // FEW062/// OVC081/// 14/12 Q1014
3:50 am
V
57 °F 6¼ mi+ 8.000 ft 240° 240° 11 kt METAR EDWE 260150Z AUTO 24011KT 9999 // FEW056/// BKN080/// 14/12 Q1013
3:20 am
V
57 °F 6¼ mi+ - 240° 240° 10 kt METAR EDWE 260120Z AUTO 24010KT 9999 // FEW013/// SCT083/// 14/12 Q1013
2:50 am
V
57 °F 6¼ mi+ 7.200 ft 230° 230° 9 kt METAR EDWE 260050Z AUTO 23009KT 9999 // FEW012/// SCT014/// BKN072/// 14/12 Q1013
2:20 am
M
57 °F 6¼ mi+ 1.300 ft 230° 230° 8 kt METAR EDWE 260020Z AUTO 23008KT 9999 // FEW011/// BKN013/// OVC074/// 14/13 Q1013
1:50 am
M
57 °F 6¼ mi+ 1.100 ft 230° 230° 8 kt METAR EDWE 252350Z AUTO 23008KT 9999 // BKN011/// BKN017/// BKN073/// 14/12 Q1013
1:20 am
M
57 °F 6¼ mi+ 1.000 ft 220° 220° 10 kt METAR EDWE 252320Z AUTO 22010KT 9999 // BKN010/// OVC020/// 14/12 Q1013
12:50 am
M
55 °F 6¼ mi+ 1.000 ft 220° 220° 9 kt METAR EDWE 252250Z AUTO 22009KT 9999 // BKN010/// OVC018/// 13/12 Q1013
12:20 am
M
55 °F 6¼ mi+ 1.000 ft 220° 220° 11 kt METAR EDWE 252220Z AUTO 22011KT 180V240 9999 // BKN010/// OVC017/// 13/12 Q1013

25 mai 2022

Temps Code Temps Temp. Vue Base cloud Vent METAR/SPECI
11:50 pm
I
55 °F 5 mi 900 ft 210° 210° 11 kt METAR EDWE 252150Z AUTO 21011KT 8000 // OVC009/// 13/12 Q1013
11:20 pm
I
55 °F 6¼ mi+ 800 ft 220° 220° 12 kt METAR EDWE 252120Z AUTO 22012KT 9999 // BKN008/// OVC014/// 13/12 Q1013
10:50 pm
I
55 °F 6¼ mi+ 800 ft 210° 210° 12 kt METAR EDWE 252050Z AUTO 21012KT 9999 // OVC008/// 13/12 Q1013
10:20 pm
I
55 °F 6¼ mi+ 900 ft 220° 220° 12 kt METAR EDWE 252020Z AUTO 22012KT 9999 // BKN009/// OVC013/// 13/11 Q1013
9:50 pm
M
55 °F 6¼ mi+ 1.000 ft 220° 220° 14 kt METAR EDWE 251950Z AUTO 22014KT 9999 // BKN010/// OVC019/// 13/11 Q1013
9:20 pm
M
55 °F 6¼ mi+ 1.500 ft 220° 220° 13 kt METAR EDWE 251920Z AUTO 22013KT 9999 // FEW010/// OVC015/// 13/11 Q1012
8:50 pm
M
55 °F 3¾ mi 1.700 ft 230° 230° 15 kt METAR EDWE 251850Z AUTO 23015KT 6000 // OVC017/// 13/11 Q1012
Données plus anciennes

Télécharge notre application

Un accès facile à toute la météo aéronautique sur ton téléphone portable et ta tablette.
Avec de nombreuses fonctionnalités non disponibles sur le site Web, comme la prise en charge hors ligne et une liste personnelle d'aéroports.

Nous et des tiers suivons ton comportement sur Internet sur notre site Web à l'aide de cookies. Si tu continues, nous supposons que tu acceptes notre politique en matière de cookies. Apprendre plus